createdAt,value
2023-03-23T15:59:20.810Z,95076.63
2023-03-23T16:01:49.577Z,95104.94
2023-03-23T16:04:20.155Z,95111.78
2023-03-23T16:06:49.470Z,95113.97
2023-03-23T16:09:20.297Z,95111.16
2023-03-23T16:11:50.013Z,95127.97
2023-03-23T16:14:18.312Z,95129.84
2023-03-23T16:16:50.471Z,95132.50
2023-03-23T16:19:20.802Z,95139.19
2023-03-23T16:21:51.569Z,95128.19
2023-03-23T16:24:20.490Z,95119.69
2023-03-23T16:26:50.271Z,95153.72
2023-03-23T16:29:39.848Z,95161.25
2023-03-23T16:32:07.884Z,95152.09
2023-03-23T16:34:38.443Z,95174.44
2023-03-23T16:37:07.506Z,95173.38
2023-03-23T16:39:36.004Z,95180.09
2023-03-23T16:42:05.731Z,95183.16
2023-03-23T16:44:34.012Z,95190.16
2023-03-23T16:47:05.525Z,95200.34
2023-03-23T16:49:33.890Z,95191.56
2023-03-23T16:52:02.212Z,95196.03
2023-03-23T16:54:30.473Z,95202.50
2023-03-23T16:56:58.818Z,95184.31
2023-03-23T16:59:30.519Z,95213.84
2023-03-23T17:02:03.688Z,95223.00
2023-03-23T17:04:32.476Z,95214.38
2023-03-23T17:07:01.108Z,95150.81
2023-03-23T17:09:29.988Z,95227.03
2023-03-23T17:11:58.261Z,95239.16
2023-03-23T17:14:26.677Z,95236.22
2023-03-23T17:16:57.024Z,95237.38
2023-03-23T17:19:25.481Z,95242.19
2023-03-23T17:21:53.752Z,95247.16
2023-03-23T17:24:22.014Z,95250.69
2023-03-23T17:26:50.529Z,95259.09
2023-03-23T17:29:19.057Z,95271.13
2023-03-23T17:31:47.643Z,95265.50
2023-03-23T17:34:18.795Z,95267.31
2023-03-23T17:36:48.138Z,95283.00
2023-03-23T17:39:16.637Z,95279.03
2023-03-23T17:41:44.892Z,95278.06
2023-03-23T17:44:13.247Z,95278.59
2023-03-23T17:46:41.581Z,95279.66
2023-03-23T17:49:09.890Z,95282.50
2023-03-23T17:51:39.850Z,95291.22
2023-03-23T17:54:08.368Z,95286.78
2023-03-23T17:56:36.718Z,95299.69
2023-03-23T17:59:05.166Z,95227.69
2023-03-23T18:01:33.511Z,95299.41
2023-03-23T18:04:02.213Z,95308.50
2023-03-23T18:06:35.402Z,95287.97
2023-03-23T18:09:05.728Z,95308.72
2023-03-23T18:11:33.974Z,95321.16
2023-03-23T18:14:02.356Z,95325.75
2023-03-23T18:16:30.744Z,95327.75
2023-03-23T18:18:59.050Z,95334.53
2023-03-23T18:21:27.347Z,95339.59
2023-03-23T18:23:59.891Z,95348.53
2023-03-23T18:26:30.890Z,95324.19
2023-03-23T18:28:59.227Z,95347.59
2023-03-23T18:31:27.550Z,95347.56
2023-03-23T18:33:56.421Z,95302.31
2023-03-23T18:36:27.924Z,95355.22
2023-03-23T18:38:58.056Z,95361.78
2023-03-23T18:41:26.865Z,95333.47
2023-03-23T18:43:57.841Z,95368.31
2023-03-23T18:46:27.029Z,95364.53
2023-03-23T18:48:55.598Z,95378.03
2023-03-23T18:51:26.269Z,95371.22
2023-03-23T18:53:54.739Z,95372.28
2023-03-23T18:56:23.463Z,95365.16
2023-03-23T18:58:53.828Z,95377.41
2023-03-23T19:01:23.888Z,95376.47
2023-03-23T19:03:52.824Z,95379.78
2023-03-23T19:06:22.675Z,95381.56
2023-03-23T19:08:52.208Z,95389.88
2023-03-23T19:11:22.106Z,95391.03
2023-03-23T19:14:01.741Z,95390.63
2023-03-23T19:16:35.954Z,95385.25
2023-03-23T19:19:05.565Z,95332.19
2023-03-23T19:21:34.208Z,95395.03
2023-03-23T19:24:03.172Z,95362.47
2023-03-23T19:26:36.979Z,95401.38
2023-03-23T19:29:24.712Z,95368.22
2023-03-23T19:31:55.956Z,95403.09
2023-03-23T19:34:25.247Z,95416.28
2023-03-23T19:36:59.527Z,95417.34
2023-03-23T19:39:32.771Z,95407.09
2023-03-23T19:42:01.346Z,95354.47
2023-03-23T19:44:29.669Z,95366.00
2023-03-23T19:47:02.237Z,95414.53
2023-03-23T19:49:30.701Z,95418.44
2023-03-23T19:52:07.289Z,95415.84
2023-03-23T19:54:39.317Z,95425.06
2023-03-23T19:57:08.912Z,95423.75
2023-03-23T19:59:38.035Z,95427.63
2023-03-23T20:02:08.752Z,95433.97
2023-03-23T20:04:37.331Z,95427.81
2023-03-23T20:07:07.435Z,95430.22
2023-03-23T20:09:36.848Z,95412.19
2023-03-23T20:12:06.298Z,95444.66
2023-03-23T20:14:36.982Z,95450.50
2023-03-23T20:17:09.860Z,95445.22
2023-03-23T20:19:38.716Z,95454.66
2023-03-23T20:22:07.434Z,95463.44
2023-03-23T20:24:37.009Z,95463.91
2023-03-23T20:27:06.456Z,95472.50
2023-03-23T20:29:35.031Z,95466.50
2023-03-23T20:32:03.679Z,95438.84
2023-03-23T20:34:33.422Z,95472.25
2023-03-23T20:37:02.801Z,95420.06
2023-03-23T20:39:33.568Z,95476.72
2023-03-23T20:42:06.649Z,95458.09
2023-03-23T20:44:36.238Z,95475.28
2023-03-23T20:47:06.147Z,95463.28
2023-03-23T20:49:38.352Z,95472.56
2023-03-23T20:52:12.005Z,95474.53
2023-03-23T20:54:41.047Z,95474.69
2023-03-23T20:57:09.639Z,95480.50
2023-03-23T20:59:38.069Z,95479.41
2023-03-23T21:02:06.468Z,95488.41
2023-03-23T21:04:37.420Z,95490.22
2023-03-23T21:07:06.409Z,95494.72
2023-03-23T21:09:34.984Z,95498.00
2023-03-23T21:12:06.244Z,95495.75
2023-03-23T21:14:35.166Z,95494.44
2023-03-23T21:17:03.708Z,95505.13
2023-03-23T21:19:32.967Z,95473.34
2023-03-23T21:22:02.922Z,95498.88
2023-03-23T21:24:32.622Z,95504.19
2023-03-23T21:27:03.047Z,95503.09
2023-03-23T21:29:31.625Z,95500.66
2023-03-23T21:32:08.319Z,95510.78
2023-03-23T21:34:38.067Z,95501.00
2023-03-23T21:37:07.912Z,95467.06
2023-03-23T21:39:36.482Z,95504.69
2023-03-23T21:42:07.127Z,95498.56
2023-03-23T21:44:36.299Z,95499.13
2023-03-23T21:47:04.908Z,95494.50
2023-03-23T21:49:33.170Z,95456.06
2023-03-23T21:52:02.238Z,95486.63
2023-03-23T21:54:33.848Z,95490.19
2023-03-23T21:57:02.358Z,95498.03
2023-03-23T21:59:30.722Z,95493.22
2023-03-23T22:01:59.389Z,95496.38
2023-03-23T22:04:28.137Z,95491.81
2023-03-23T22:06:57.173Z,95494.38
2023-03-23T22:09:25.613Z,95497.41
2023-03-23T22:11:55.836Z,95495.53
2023-03-23T22:14:24.743Z,95477.25
2023-03-23T22:16:53.382Z,95491.47
2023-03-23T22:19:22.031Z,95482.09
2023-03-23T22:21:50.598Z,95482.63
2023-03-23T22:24:19.055Z,95483.44
2023-03-23T22:26:47.729Z,95416.41
2023-03-23T22:29:17.993Z,95484.19
2023-03-23T22:31:46.909Z,95490.84
2023-03-23T22:34:15.587Z,95492.13
2023-03-23T22:36:44.186Z,95498.78
2023-03-23T22:39:12.697Z,95491.06
2023-03-23T22:41:42.407Z,95489.25
2023-03-23T22:44:14.133Z,95492.47
2023-03-23T22:46:43.914Z,95484.81
2023-03-23T22:49:12.376Z,95489.09
2023-03-23T22:51:41.366Z,95492.28
2023-03-23T22:54:11.190Z,95425.88
2023-03-23T22:56:39.477Z,95489.38
2023-03-23T22:59:08.364Z,95499.22
2023-03-23T23:01:37.173Z,95500.56
2023-03-23T23:04:07.676Z,95496.56
2023-03-23T23:06:36.684Z,95420.66
2023-03-23T23:09:06.365Z,95498.31
2023-03-23T23:11:34.722Z,95500.59
2023-03-23T23:14:06.368Z,95495.03
2023-03-23T23:16:35.316Z,95394.66
2023-03-23T23:19:04.947Z,95485.78
2023-03-23T23:21:34.784Z,95493.50
2023-03-23T23:24:03.842Z,95494.50
2023-03-23T23:26:32.232Z,95492.16
2023-03-23T23:29:01.285Z,95499.38
2023-03-23T23:31:33.819Z,95496.97
2023-03-23T23:34:04.969Z,95481.56
2023-03-23T23:36:34.750Z,95491.84
2023-03-23T23:39:05.966Z,95473.56
2023-03-23T23:41:34.617Z,95496.59
2023-03-23T23:44:04.100Z,95498.78
2023-03-23T23:46:32.750Z,95493.19
2023-03-23T23:49:01.830Z,95434.09
2023-03-23T23:51:33.835Z,95491.53
2023-03-23T23:54:04.751Z,95497.50
2023-03-23T23:56:33.168Z,95460.69
2023-03-23T23:59:01.512Z,95490.31
